Time;durP1;ratioP1;P1;durP2;ratioP2;P2;SDS_P1;SDS_P2;PMS_P1;PMS_P2;Temp;Humidity;BMP_temperature;BMP_pressure;BME280_temperature;BME280_humidity;BME280_pressure;Samples;Min_cycle;Max_cycle;Signal;HPM_P1;HPM_P2
2024/01/15 00:00:26;;;;;;;21.83;2.95;;;;;;;;;;5040378;28;20084;-76
2024/01/15 00:02:57;;;;;;;17.17;2.90;;;;;;;;;;5034013;28;20030;-76
2024/01/15 00:05:23;;;;;;;25.80;2.72;;;;;;;;;;5030580;28;20533;-76
2024/01/15 00:07:49;;;;;;;13.43;2.00;;;;;;;;;;5033891;28;20045;-75
2024/01/15 00:10:15;;;;;;;16.00;2.42;;;;;;;;;;5038701;28;20029;-75
2024/01/15 00:12:41;;;;;;;25.45;2.42;;;;;;;;;;5016456;28;20036;-76
2024/01/15 00:15:08;;;;;;;30.08;3.22;;;;;;;;;;5034582;28;20151;-76
2024/01/15 00:17:34;;;;;;;22.17;3.65;;;;;;;;;;5033314;28;20029;-74
2024/01/15 00:20:00;;;;;;;25.58;3.17;;;;;;;;;;5030818;28;20111;-75
2024/01/15 00:22:27;;;;;;;46.50;4.68;;;;;;;;;;5031049;28;20120;-75
2024/01/15 00:24:53;;;;;;;28.67;2.80;;;;;;;;;;5032509;28;20066;-74
2024/01/15 00:27:19;;;;;;;21.08;3.40;;;;;;;;;;5032467;28;20024;-76
2024/01/15 00:29:45;;;;;;;30.65;3.05;;;;;;;;;;5032931;28;20170;-75
2024/01/15 00:32:11;;;;;;;24.60;2.65;;;;;;;;;;5026806;28;20113;-75
2024/01/15 00:34:38;;;;;;;17.40;2.38;;;;;;;;;;5030882;28;20029;-76
2024/01/15 00:37:06;;;;;;;20.80;2.80;;;;;;;;;;5033011;28;20457;-76
2024/01/15 00:39:33;;;;;;;23.92;2.42;;;;;;;;;;5034132;28;20029;-75
2024/01/15 00:42:00;;;;;;;21.35;2.67;;;;;;;;;;5032299;28;20024;-76
2024/01/15 00:44:26;;;;;;;23.08;2.70;;;;;;;;;;5032280;28;20142;-76
2024/01/15 00:46:53;;;;;;;25.50;3.47;;;;;;;;;;5031488;28;20068;-76
2024/01/15 00:49:19;;;;;;;22.50;3.00;;;;;;;;;;5025741;28;20080;-76
2024/01/15 00:51:46;;;;;;;22.95;3.78;;;;;;;;;;5033732;28;20200;-75
2024/01/15 00:54:12;;;;;;;28.30;2.72;;;;;;;;;;5030367;28;20020;-75
2024/01/15 00:56:38;;;;;;;30.38;3.17;;;;;;;;;;5032087;28;20025;-76
2024/01/15 00:59:04;;;;;;;29.55;2.40;;;;;;;;;;5025604;28;20038;-75
2024/01/15 01:01:30;;;;;;;23.13;2.60;;;;;;;;;;5029879;28;20550;-74
2024/01/15 01:03:57;;;;;;;20.52;3.65;;;;;;;;;;5029903;28;20391;-74
2024/01/15 01:06:23;;;;;;;19.13;2.20;;;;;;;;;;5041165;28;20034;-75
2024/01/15 01:08:49;;;;;;;19.25;3.47;;;;;;;;;;5036258;28;20049;-75
2024/01/15 01:11:16;;;;;;;29.45;4.07;;;;;;;;;;5039519;28;20519;-75
2024/01/15 01:13:42;;;;;;;16.60;2.28;;;;;;;;;;5030886;28;20486;-75
2024/01/15 01:16:08;;;;;;;22.30;2.83;;;;;;;;;;5032375;28;20036;-75
2024/01/15 01:18:36;;;;;;;14.32;2.67;;;;;;;;;;5030349;28;20038;-75
2024/01/15 01:21:02;;;;;;;16.00;2.42;;;;;;;;;;5037348;28;20521;-75
2024/01/15 01:23:30;;;;;;;20.45;2.75;;;;;;;;;;5035336;28;20533;-75
2024/01/15 01:25:56;;;;;;;13.80;2.10;;;;;;;;;;5032687;28;20041;-76
2024/01/15 01:28:22;;;;;;;15.43;2.28;;;;;;;;;;5035001;28;20033;-76
2024/01/15 01:30:48;;;;;;;17.70;2.03;;;;;;;;;;5032938;28;20159;-76
2024/01/15 01:33:15;;;;;;;20.98;2.20;;;;;;;;;;5031601;28;20067;-75
2024/01/15 01:35:41;;;;;;;16.23;2.92;;;;;;;;;;5007032;28;20028;-76
2024/01/15 01:38:07;;;;;;;16.27;2.50;;;;;;;;;;5036536;28;20025;-75
2024/01/15 01:40:33;;;;;;;14.52;1.75;;;;;;;;;;5034674;28;20046;-75
2024/01/15 01:42:59;;;;;;;21.98;3.10;;;;;;;;;;5030913;28;20088;-75
2024/01/15 01:45:25;;;;;;;14.40;2.28;;;;;;;;;;5026848;28;20084;-76
2024/01/15 01:47:52;;;;;;;20.77;2.33;;;;;;;;;;5026521;28;20053;-75
2024/01/15 01:50:18;;;;;;;15.45;2.20;;;;;;;;;;5030815;28;20025;-76
2024/01/15 01:52:44;;;;;;;19.88;2.42;;;;;;;;;;5034036;28;20098;-76
2024/01/15 01:55:12;;;;;;;15.18;2.63;;;;;;;;;;5030231;28;20072;-76
2024/01/15 01:57:38;;;;;;;17.08;2.20;;;;;;;;;;5030755;28;20022;-76
2024/01/15 02:00:06;;;;;;;14.88;3.00;;;;;;;;;;5042036;28;20024;-77
2024/01/15 02:02:37;;;;;;;10.85;1.60;;;;;;;;;;5029424;28;20018;-76
2024/01/15 02:05:05;;;;;;;14.77;1.95;;;;;;;;;;5025723;28;20104;-76
2024/01/15 02:07:31;;;;;;;9.13;2.08;;;;;;;;;;5040864;28;20022;-75
2024/01/15 02:09:57;;;;;;;13.27;1.52;;;;;;;;;;5015598;28;20447;-76
2024/01/15 02:12:24;;;;;;;7.53;1.20;;;;;;;;;;5039109;28;20048;-75
2024/01/15 02:14:50;;;;;;;9.70;1.23;;;;;;;;;;5029050;28;20087;-76
2024/01/15 02:17:18;;;;;;;11.35;1.52;;;;;;;;;;5028939;28;20029;-76
2024/01/15 02:19:44;;;;;;;11.10;1.25;;;;;;;;;;5015378;28;20040;-76
2024/01/15 02:22:10;;;;;;;7.88;1.15;;;;;;;;;;5037878;28;20048;-76
2024/01/15 02:24:36;;;;;;;11.95;1.48;;;;;;;;;;5029191;28;20099;-77
2024/01/15 02:27:02;;;;;;;6.60;1.10;;;;;;;;;;5039667;28;20061;-77
2024/01/15 02:29:29;;;;;;;3.92;1.27;;;;;;;;;;5042571;28;20115;-76
2024/01/15 02:31:55;;;;;;;5.07;1.30;;;;;;;;;;5031692;28;20039;-77
2024/01/15 02:34:23;;;;;;;12.90;1.48;;;;;;;;;;5032866;28;20034;-75
2024/01/15 02:36:49;;;;;;;11.90;1.50;;;;;;;;;;5035282;28;20025;-76
2024/01/15 02:39:15;;;;;;;8.25;1.25;;;;;;;;;;5027371;28;20052;-76
2024/01/15 02:41:42;;;;;;;14.82;2.50;;;;;;;;;;5032127;28;20424;-76
2024/01/15 02:44:08;;;;;;;17.58;2.47;;;;;;;;;;5031524;28;20032;-76
2024/01/15 02:46:34;;;;;;;14.40;1.98;;;;;;;;;;5032121;28;20029;-77
2024/01/15 02:49:00;;;;;;;10.23;1.50;;;;;;;;;;5027656;28;20034;-76
2024/01/15 02:51:26;;;;;;;10.23;1.50;;;;;;;;;;5027952;28;20172;-76
2024/01/15 02:53:52;;;;;;;9.85;1.42;;;;;;;;;;5009372;28;20120;-76
2024/01/15 02:56:18;;;;;;;13.13;1.75;;;;;;;;;;5038606;28;20461;-76
2024/01/15 02:58:45;;;;;;;15.27;2.30;;;;;;;;;;5035760;28;20029;-77
2024/01/15 03:01:11;;;;;;;14.15;1.73;;;;;;;;;;5037299;28;20071;-77
2024/01/15 03:03:37;;;;;;;11.95;1.83;;;;;;;;;;5024674;28;20069;-77
2024/01/15 03:06:03;;;;;;;7.63;1.95;;;;;;;;;;5030016;28;20379;-76
2024/01/15 03:08:29;;;;;;;9.95;1.60;;;;;;;;;;5017644;28;20188;-76
2024/01/15 03:10:56;;;;;;;18.67;1.95;;;;;;;;;;5034841;28;20393;-76
2024/01/15 03:13:22;;;;;;;14.10;2.40;;;;;;;;;;5039319;28;20033;-76
2024/01/15 03:15:48;;;;;;;10.10;1.67;;;;;;;;;;5032950;28;20040;-77
2024/01/15 03:18:14;;;;;;;8.63;2.00;;;;;;;;;;5037730;28;20055;-75
2024/01/15 03:20:41;;;;;;;8.85;1.30;;;;;;;;;;5017718;28;20153;-76
2024/01/15 03:23:07;;;;;;;14.75;1.45;;;;;;;;;;5053730;28;20041;-76
2024/01/15 03:25:33;;;;;;;11.00;1.63;;;;;;;;;;5016345;28;20042;-77
2024/01/15 03:28:00;;;;;;;15.63;2.30;;;;;;;;;;5031208;28;20037;-76
2024/01/15 03:30:26;;;;;;;10.52;1.58;;;;;;;;;;5032883;28;20044;-77
2024/01/15 03:32:52;;;;;;;21.60;1.95;;;;;;;;;;5036088;28;20037;-76
2024/01/15 03:35:18;;;;;;;16.45;1.92;;;;;;;;;;5039552;28;20025;-77
2024/01/15 03:37:45;;;;;;;16.13;2.58;;;;;;;;;;5034059;28;20056;-76
2024/01/15 03:40:11;;;;;;;15.55;2.22;;;;;;;;;;5017900;28;20378;-76
2024/01/15 03:42:37;;;;;;;9.57;1.42;;;;;;;;;;5034438;28;20060;-77
2024/01/15 03:45:03;;;;;;;11.98;2.28;;;;;;;;;;5041955;28;20032;-77
2024/01/15 03:47:29;;;;;;;19.42;1.70;;;;;;;;;;5030836;28;20574;-76
2024/01/15 03:49:56;;;;;;;18.15;2.00;;;;;;;;;;5033866;28;20067;-77
2024/01/15 03:52:22;;;;;;;14.70;1.73;;;;;;;;;;5039573;28;20044;-77
2024/01/15 03:54:48;;;;;;;18.30;2.85;;;;;;;;;;5037788;28;20396;-76
2024/01/15 03:57:14;;;;;;;16.30;2.33;;;;;;;;;;5036576;28;20399;-77
2024/01/15 03:59:41;;;;;;;12.73;2.42;;;;;;;;;;5034173;28;20196;-77
2024/01/15 04:02:07;;;;;;;14.57;2.25;;;;;;;;;;5041300;28;20135;-76
2024/01/15 04:04:34;;;;;;;19.65;2.15;;;;;;;;;;5031078;28;20032;-77
2024/01/15 04:07:00;;;;;;;12.98;2.10;;;;;;;;;;5043691;28;20549;-76
2024/01/15 04:09:26;;;;;;;17.48;2.85;;;;;;;;;;5037700;28;20382;-76
2024/01/15 04:11:52;;;;;;;17.17;2.20;;;;;;;;;;5034001;28;20060;-75
2024/01/15 04:14:18;;;;;;;11.73;2.10;;;;;;;;;;5031483;28;20049;-76
2024/01/15 04:16:44;;;;;;;14.45;3.33;;;;;;;;;;5035090;28;20033;-77
2024/01/15 04:19:10;;;;;;;13.85;2.22;;;;;;;;;;5028839;28;20069;-76
2024/01/15 04:21:36;;;;;;;21.35;2.03;;;;;;;;;;5032027;28;20037;-77
2024/01/15 04:24:03;;;;;;;19.42;1.67;;;;;;;;;;5028932;28;20045;-76
2024/01/15 04:26:29;;;;;;;11.57;2.13;;;;;;;;;;5026018;28;20383;-74
2024/01/15 04:28:55;;;;;;;19.65;1.85;;;;;;;;;;5038067;28;20083;-76
2024/01/15 04:31:26;;;;;;;9.88;1.73;;;;;;;;;;5039405;28;20044;-76
2024/01/15 04:33:52;;;;;;;17.40;2.65;;;;;;;;;;5036404;28;20106;-76
2024/01/15 04:36:19;;;;;;;9.65;1.60;;;;;;;;;;5026288;28;20042;-77
2024/01/15 04:38:45;;;;;;;12.23;1.70;;;;;;;;;;5027036;28;20472;-76
2024/01/15 04:41:14;;;;;;;14.65;1.50;;;;;;;;;;5031601;28;20047;-76
2024/01/15 04:43:41;;;;;;;13.32;1.77;;;;;;;;;;5026048;28;20037;-76
2024/01/15 04:46:07;;;;;;;18.17;2.75;;;;;;;;;;5026277;28;20037;-76
2024/01/15 04:48:34;;;;;;;14.13;2.33;;;;;;;;;;5029487;28;20113;-76
2024/01/15 04:51:00;;;;;;;11.80;1.77;;;;;;;;;;5030029;28;20025;-76
2024/01/15 04:53:26;;;;;;;20.85;2.67;;;;;;;;;;5030890;28;20175;-76
2024/01/15 04:55:52;;;;;;;17.67;2.97;;;;;;;;;;5024249;28;20089;-77
2024/01/15 04:58:18;;;;;;;16.88;2.53;;;;;;;;;;5031343;28;20064;-77
2024/01/15 05:00:45;;;;;;;14.90;2.15;;;;;;;;;;5031509;28;20055;-77
2024/01/15 05:03:11;;;;;;;20.13;4.38;;;;;;;;;;5029547;28;20086;-77
2024/01/15 05:05:37;;;;;;;13.65;1.45;;;;;;;;;;5030445;28;20080;-77
2024/01/15 05:08:04;;;;;;;18.15;2.15;;;;;;;;;;5029690;28;20068;-77
2024/01/15 05:10:30;;;;;;;15.50;1.63;;;;;;;;;;5013731;28;20076;-77
2024/01/15 05:12:56;;;;;;;19.50;1.83;;;;;;;;;;5031774;28;20045;-77
2024/01/15 05:15:22;;;;;;;20.65;1.77;;;;;;;;;;5031633;28;20041;-76
2024/01/15 05:17:48;;;;;;;23.17;2.75;;;;;;;;;;5032024;28;20032;-77
2024/01/15 05:20:15;;;;;;;19.85;1.75;;;;;;;;;;5035694;28;20029;-77
2024/01/15 05:22:41;;;;;;;13.77;1.70;;;;;;;;;;5036454;28;20187;-77
2024/01/15 05:25:07;;;;;;;14.13;1.60;;;;;;;;;;5032720;28;20042;-76
2024/01/15 05:27:33;;;;;;;14.77;1.63;;;;;;;;;;5030533;28;20119;-76
2024/01/15 05:29:59;;;;;;;17.42;2.00;;;;;;;;;;5029516;28;20041;-77
2024/01/15 05:32:25;;;;;;;18.25;2.53;;;;;;;;;;5028580;28;20033;-76
2024/01/15 05:34:52;;;;;;;21.95;2.45;;;;;;;;;;5029268;28;20056;-76
2024/01/15 05:37:18;;;;;;;26.45;4.75;;;;;;;;;;5030568;28;20144;-75
2024/01/15 05:39:44;;;;;;;11.70;1.95;;;;;;;;;;5029933;28;20306;-76
2024/01/15 05:42:10;;;;;;;22.08;2.78;;;;;;;;;;5031103;28;20025;-75
2024/01/15 05:44:36;;;;;;;19.30;2.55;;;;;;;;;;5029420;28;20048;-76
2024/01/15 05:47:04;;;;;;;18.13;1.92;;;;;;;;;;5031165;28;20099;-75
2024/01/15 05:49:30;;;;;;;15.68;2.28;;;;;;;;;;5015631;28;20041;-76
2024/01/15 05:51:56;;;;;;;11.10;1.75;;;;;;;;;;5029417;28;20018;-76
2024/01/15 05:54:24;;;;;;;9.60;1.50;;;;;;;;;;5024466;28;20051;-76
2024/01/15 05:56:50;;;;;;;22.60;1.77;;;;;;;;;;5030716;28;20159;-76
2024/01/15 05:59:17;;;;;;;8.52;1.88;;;;;;;;;;5030105;28;20442;-76
2024/01/15 06:01:43;;;;;;;8.98;1.30;;;;;;;;;;5030445;28;20110;-77
2024/01/15 06:04:09;;;;;;;12.05;1.77;;;;;;;;;;5033378;28;20021;-76
2024/01/15 06:06:35;;;;;;;13.07;1.70;;;;;;;;;;5036038;28;20064;-76
2024/01/15 06:09:05;;;;;;;15.80;2.25;;;;;;;;;;5031258;28;20054;-77
2024/01/15 06:11:32;;;;;;;11.98;1.73;;;;;;;;;;5049023;28;20044;-76
2024/01/15 06:14:02;;;;;;;14.50;1.92;;;;;;;;;;5048867;28;20025;-77
2024/01/15 06:16:29;;;;;;;20.50;1.95;;;;;;;;;;5033929;28;20134;-77
2024/01/15 06:18:55;;;;;;;8.07;1.90;;;;;;;;;;5015841;28;20036;-77
2024/01/15 06:21:21;;;;;;;19.15;1.92;;;;;;;;;;5033978;28;20028;-76
2024/01/15 06:23:47;;;;;;;13.77;2.25;;;;;;;;;;5035313;28;20159;-78
2024/01/15 06:26:13;;;;;;;22.05;4.25;;;;;;;;;;5050053;28;20043;-76
2024/01/15 06:28:39;;;;;;;16.92;2.47;;;;;;;;;;5048703;28;20040;-78
2024/01/15 06:31:07;;;;;;;20.75;2.72;;;;;;;;;;5036101;28;20473;-77
2024/01/15 06:33:33;;;;;;;14.32;2.38;;;;;;;;;;5029154;28;20022;-76
2024/01/15 06:35:59;;;;;;;12.82;2.72;;;;;;;;;;5029033;28;20097;-78
2024/01/15 06:38:25;;;;;;;22.30;2.55;;;;;;;;;;5027778;28;20113;-77
2024/01/15 06:40:51;;;;;;;11.50;2.00;;;;;;;;;;5012685;28;20528;-78
2024/01/15 06:43:18;;;;;;;16.48;2.90;;;;;;;;;;5017388;28;20029;-78
2024/01/15 06:45:45;;;;;;;27.27;3.97;;;;;;;;;;5033367;28;20094;-76
2024/01/15 06:48:14;;;;;;;11.77;3.53;;;;;;;;;;5028799;28;20060;-76
2024/01/15 06:50:40;;;;;;;13.02;3.50;;;;;;;;;;5033641;28;20025;-77
2024/01/15 06:53:06;;;;;;;23.17;5.72;;;;;;;;;;5038489;28;20044;-77
2024/01/15 06:55:33;;;;;;;19.25;5.78;;;;;;;;;;5029862;28;20034;-77
2024/01/15 06:57:59;;;;;;;17.95;4.15;;;;;;;;;;5030761;28;20056;-79
2024/01/15 07:00:25;;;;;;;22.73;5.15;;;;;;;;;;5011646;28;20518;-76
2024/01/15 07:02:51;;;;;;;11.98;3.17;;;;;;;;;;5033823;28;20048;-77
2024/01/15 07:05:18;;;;;;;19.58;2.75;;;;;;;;;;5034737;28;20164;-79
2024/01/15 07:07:44;;;;;;;13.23;2.70;;;;;;;;;;5017358;28;20029;-76
2024/01/15 07:10:10;;;;;;;19.52;2.78;;;;;;;;;;5029773;28;20052;-75
2024/01/15 07:12:36;;;;;;;16.00;4.60;;;;;;;;;;5041277;28;20333;-77
2024/01/15 07:15:03;;;;;;;23.20;3.88;;;;;;;;;;5048138;28;20160;-77
2024/01/15 07:17:30;;;;;;;12.13;3.38;;;;;;;;;;5032814;28;20034;-77
2024/01/15 07:19:57;;;;;;;18.23;5.60;;;;;;;;;;5029248;28;20040;-77
2024/01/15 07:22:23;;;;;;;27.83;7.07;;;;;;;;;;5034084;28;20120;-76
2024/01/15 07:24:49;;;;;;;16.23;5.80;;;;;;;;;;5034458;28;20030;-76
2024/01/15 07:27:16;;;;;;;26.90;6.38;;;;;;;;;;5032292;28;20029;-76
2024/01/15 07:29:42;;;;;;;28.48;5.47;;;;;;;;;;5048393;28;20041;-76
2024/01/15 07:32:09;;;;;;;12.30;4.43;;;;;;;;;;5050260;28;20033;-75
2024/01/15 07:34:35;;;;;;;17.83;4.20;;;;;;;;;;5012173;28;20058;-76
2024/01/15 07:37:01;;;;;;;16.90;4.35;;;;;;;;;;5041506;28;20483;-75
2024/01/15 07:39:28;;;;;;;14.23;3.97;;;;;;;;;;5008897;28;20042;-75
2024/01/15 07:41:55;;;;;;;17.27;3.42;;;;;;;;;;5046806;28;20041;-76
2024/01/15 07:44:21;;;;;;;18.27;4.25;;;;;;;;;;5027767;28;20299;-76
2024/01/15 07:46:47;;;;;;;22.55;4.78;;;;;;;;;;5011358;28;20087;-76
2024/01/15 07:49:14;;;;;;;20.05;4.13;;;;;;;;;;5010093;28;20038;-75
2024/01/15 07:51:40;;;;;;;22.05;3.30;;;;;;;;;;5027394;28;20057;-75
2024/01/15 07:54:07;;;;;;;12.63;2.92;;;;;;;;;;5028456;28;20057;-76
2024/01/15 07:56:33;;;;;;;25.52;4.20;;;;;;;;;;5028660;28;20117;-77
2024/01/15 07:59:00;;;;;;;15.30;2.40;;;;;;;;;;5017603;28;20045;-77
2024/01/15 08:01:26;;;;;;;15.02;2.22;;;;;;;;;;5045191;28;20518;-76
2024/01/15 08:03:52;;;;;;;23.55;2.50;;;;;;;;;;5037777;28;20126;-77
2024/01/15 08:06:19;;;;;;;19.92;2.75;;;;;;;;;;5027508;28;20036;-75
2024/01/15 08:08:45;;;;;;;15.43;2.95;;;;;;;;;;5027672;28;20045;-77
2024/01/15 08:11:11;;;;;;;17.05;2.28;;;;;;;;;;5027251;28;20487;-75
2024/01/15 08:13:37;;;;;;;12.43;3.50;;;;;;;;;;5028409;28;20033;-76
2024/01/15 08:16:04;;;;;;;16.17;2.50;;;;;;;;;;5012555;28;20100;-76
2024/01/15 08:18:30;;;;;;;13.48;2.28;;;;;;;;;;5030818;28;20044;-75
2024/01/15 08:20:56;;;;;;;13.90;1.85;;;;;;;;;;5030790;28;20086;-75
2024/01/15 08:23:28;;;;;;;17.70;2.90;;;;;;;;;;5030676;28;20136;-77
2024/01/15 08:25:55;;;;;;;18.08;3.13;;;;;;;;;;5026514;28;20058;-76
2024/01/15 08:28:21;;;;;;;30.88;4.38;;;;;;;;;;5012982;28;20100;-76
2024/01/15 08:30:47;;;;;;;17.02;2.92;;;;;;;;;;5011976;28;20403;-77
2024/01/15 08:33:13;;;;;;;18.08;3.75;;;;;;;;;;5010986;28;20030;-77
2024/01/15 08:35:39;;;;;;;18.95;3.40;;;;;;;;;;5030716;28;20059;-76
2024/01/15 08:38:05;;;;;;;21.55;2.72;;;;;;;;;;5014277;28;20033;-75
2024/01/15 08:40:31;;;;;;;14.88;2.33;;;;;;;;;;5009557;28;20042;-77
2024/01/15 08:42:58;;;;;;;14.20;2.45;;;;;;;;;;5027493;28;20034;-77
2024/01/15 08:45:24;;;;;;;22.75;3.00;;;;;;;;;;5012145;28;20062;-77
2024/01/15 08:47:51;;;;;;;23.10;2.80;;;;;;;;;;5012571;28;20096;-77
2024/01/15 08:50:17;;;;;;;13.10;2.75;;;;;;;;;;5024622;28;20048;-77
2024/01/15 08:52:43;;;;;;;12.52;2.17;;;;;;;;;;5022722;28;20064;-78
2024/01/15 08:55:10;;;;;;;15.32;2.58;;;;;;;;;;5043595;28;20137;-77
2024/01/15 08:57:36;;;;;;;14.93;1.70;;;;;;;;;;5012267;28;20041;-77
2024/01/15 09:00:08;;;;;;;13.65;2.33;;;;;;;;;;5012517;28;20146;-76
2024/01/15 09:02:35;;;;;;;18.70;2.28;;;;;;;;;;5013966;28;20125;-76
2024/01/15 09:05:01;;;;;;;18.15;1.73;;;;;;;;;;5026844;28;20153;-75
2024/01/15 09:07:27;;;;;;;18.60;2.13;;;;;;;;;;5010504;28;20048;-76
2024/01/15 09:09:54;;;;;;;15.02;2.75;;;;;;;;;;4993897;28;20085;-76
2024/01/15 09:12:22;;;;;;;12.27;2.40;;;;;;;;;;5012076;28;20077;-76
2024/01/15 09:14:50;;;;;;;13.18;2.88;;;;;;;;;;5011459;28;20042;-76
2024/01/15 09:17:16;;;;;;;13.00;2.08;;;;;;;;;;5012088;28;20028;-75
2024/01/15 09:19:42;;;;;;;12.15;1.67;;;;;;;;;;5011250;28;20056;-76
2024/01/15 09:22:09;;;;;;;14.80;2.10;;;;;;;;;;5042926;28;20049;-76
2024/01/15 09:24:35;;;;;;;20.30;2.45;;;;;;;;;;5042411;28;20052;-76
2024/01/15 09:27:01;;;;;;;18.58;2.60;;;;;;;;;;5025818;28;20038;-75
2024/01/15 09:29:27;;;;;;;13.23;2.70;;;;;;;;;;5010513;28;20041;-76
2024/01/15 09:31:53;;;;;;;21.05;2.88;;;;;;;;;;5009965;28;20121;-76
2024/01/15 09:34:20;;;;;;;26.30;3.05;;;;;;;;;;5041770;28;20037;-76
2024/01/15 09:36:47;;;;;;;24.52;4.30;;;;;;;;;;5010560;28;20275;-76
2024/01/15 09:39:15;;;;;;;19.45;4.28;;;;;;;;;;5009496;28;20371;-76
2024/01/15 09:41:41;;;;;;;17.90;2.75;;;;;;;;;;5009637;28;20450;-76
2024/01/15 09:44:07;;;;;;;15.48;2.50;;;;;;;;;;5010238;28;20109;-76
2024/01/15 09:46:34;;;;;;;19.55;2.22;;;;;;;;;;5010281;28;20131;-77
2024/01/15 09:49:01;;;;;;;17.17;3.03;;;;;;;;;;5039260;28;20436;-78
2024/01/15 09:51:29;;;;;;;9.23;2.05;;;;;;;;;;5032461;28;20248;-76
2024/01/15 09:53:55;;;;;;;27.90;2.83;;;;;;;;;;5049001;28;20029;-77
2024/01/15 09:56:21;;;;;;;16.27;2.33;;;;;;;;;;5048868;28;20124;-76
2024/01/15 09:58:48;;;;;;;21.45;3.67;;;;;;;;;;5048158;28;20506;-76
2024/01/15 10:01:15;;;;;;;17.55;2.88;;;;;;;;;;5030843;28;20029;-76
2024/01/15 10:03:42;;;;;;;20.42;2.83;;;;;;;;;;5009706;28;20037;-76
2024/01/15 10:06:09;;;;;;;16.55;2.50;;;;;;;;;;5025600;28;20084;-77
2024/01/15 10:08:37;;;;;;;17.20;3.13;;;;;;;;;;5041942;28;20037;-76
2024/01/15 10:11:04;;;;;;;13.18;2.58;;;;;;;;;;5010767;28;20042;-77
2024/01/15 10:13:31;;;;;;;24.15;3.42;;;;;;;;;;5010689;28;20061;-77
2024/01/15 10:15:58;;;;;;;17.88;2.72;;;;;;;;;;5010188;28;20068;-77
2024/01/15 10:18:24;;;;;;;20.98;3.45;;;;;;;;;;5056135;28;20137;-77
2024/01/15 10:20:50;;;;;;;22.48;3.92;;;;;;;;;;5031273;28;20033;-76
2024/01/15 10:23:16;;;;;;;17.58;2.83;;;;;;;;;;5030678;28;20029;-76
2024/01/15 10:25:43;;;;;;;25.90;2.42;;;;;;;;;;5029041;28;20045;-76
2024/01/15 10:28:09;;;;;;;12.57;2.35;;;;;;;;;;5029998;28;20037;-76
2024/01/15 10:30:36;;;;;;;19.02;2.85;;;;;;;;;;5028520;28;20033;-77
2024/01/15 10:33:03;;;;;;;13.80;2.13;;;;;;;;;;5030197;28;20056;-77
2024/01/15 10:35:29;;;;;;;18.88;2.17;;;;;;;;;;5029851;28;20108;-76
2024/01/15 10:37:55;;;;;;;12.20;1.90;;;;;;;;;;5029627;28;20026;-75
2024/01/15 10:40:21;;;;;;;17.00;1.77;;;;;;;;;;5028337;28;20479;-76
2024/01/15 10:42:48;;;;;;;20.65;2.47;;;;;;;;;;5029761;28;20075;-76
2024/01/15 10:45:14;;;;;;;19.40;3.33;;;;;;;;;;5028063;28;20091;-76
2024/01/15 10:47:41;;;;;;;14.40;2.30;;;;;;;;;;5029506;28;20029;-77
2024/01/15 10:50:07;;;;;;;9.10;2.45;;;;;;;;;;5011550;28;20052;-76
2024/01/15 10:52:34;;;;;;;18.38;2.05;;;;;;;;;;5029689;28;20065;-76
2024/01/15 10:55:01;;;;;;;23.75;2.33;;;;;;;;;;5030657;28;20025;-76
2024/01/15 10:57:28;;;;;;;20.48;2.38;;;;;;;;;;5030455;28;20022;-75
2024/01/15 10:59:54;;;;;;;16.48;2.67;;;;;;;;;;5029215;28;20041;-75
2024/01/15 11:02:20;;;;;;;7.85;1.80;;;;;;;;;;5016610;28;20038;-75
2024/01/15 11:04:46;;;;;;;12.10;2.85;;;;;;;;;;5009373;28;20108;-76
2024/01/15 11:07:13;;;;;;;14.13;2.75;;;;;;;;;;5009745;28;20244;-75
2024/01/15 11:09:40;;;;;;;17.58;3.63;;;;;;;;;;5008992;28;20042;-74
2024/01/15 11:12:13;;;;;;;18.02;3.90;;;;;;;;;;5041601;28;20034;-76
2024/01/15 11:14:40;;;;;;;11.57;2.75;;;;;;;;;;5009185;28;20030;-76
2024/01/15 11:17:07;;;;;;;15.18;2.67;;;;;;;;;;5043357;28;20018;-75
2024/01/15 11:19:40;;;;;;;9.80;1.52;;;;;;;;;;5010055;28;20419;-75
2024/01/15 11:22:07;;;;;;;9.07;1.77;;;;;;;;;;5010411;28;20045;-77
2024/01/15 11:24:35;;;;;;;8.55;2.72;;;;;;;;;;5009966;28;20092;-75
2024/01/15 11:27:01;;;;;;;7.75;2.38;;;;;;;;;;5010278;28;20026;-76
2024/01/15 11:29:28;;;;;;;18.65;2.25;;;;;;;;;;5010800;28;20173;-76
2024/01/15 11:32:04;;;;;;;10.23;1.83;;;;;;;;;;5020633;28;20032;-76
2024/01/15 11:34:49;;;;;;;7.00;1.55;;;;;;;;;;5029406;28;20025;-75
2024/01/15 11:37:15;;;;;;;8.10;1.60;;;;;;;;;;5027891;28;20057;-76
2024/01/15 11:39:46;;;;;;;16.60;2.13;;;;;;;;;;5007709;28;20033;-76
2024/01/15 11:42:13;;;;;;;9.02;1.75;;;;;;;;;;5024428;28;20056;-76
2024/01/15 11:44:39;;;;;;;6.10;1.27;;;;;;;;;;5008217;28;20038;-76
2024/01/15 11:47:07;;;;;;;7.47;1.30;;;;;;;;;;5020390;28;20033;-75
2024/01/15 11:49:33;;;;;;;10.50;1.52;;;;;;;;;;5029445;28;20037;-75
2024/01/15 11:52:01;;;;;;;12.00;1.50;;;;;;;;;;5031033;28;20033;-76
2024/01/15 11:54:30;;;;;;;6.25;1.70;;;;;;;;;;5032788;28;20056;-76
2024/01/15 11:56:57;;;;;;;7.93;1.50;;;;;;;;;;5033171;28;20087;-76
2024/01/15 11:59:24;;;;;;;9.23;1.58;;;;;;;;;;5012863;28;20037;-76
2024/01/15 12:01:50;;;;;;;12.15;1.50;;;;;;;;;;5028455;28;20030;-76
2024/01/15 12:04:17;;;;;;;11.93;1.45;;;;;;;;;;5013128;28;20030;-76
2024/01/15 12:06:43;;;;;;;20.55;2.03;;;;;;;;;;4995025;28;20064;-75
2024/01/15 12:09:10;;;;;;;10.35;1.70;;;;;;;;;;5011151;28;20061;-75
2024/01/15 12:11:37;;;;;;;9.52;1.95;;;;;;;;;;5010998;28;20040;-75
2024/01/15 12:14:03;;;;;;;10.20;1.60;;;;;;;;;;5011156;28;20037;-75
2024/01/15 12:16:29;;;;;;;9.02;1.77;;;;;;;;;;5020504;28;20025;-76
2024/01/15 12:18:55;;;;;;;14.85;1.85;;;;;;;;;;5014486;28;20069;-75
2024/01/15 12:21:21;;;;;;;7.60;1.73;;;;;;;;;;5032640;28;20101;-75
2024/01/15 12:23:48;;;;;;;12.30;1.80;;;;;;;;;;5032194;28;20061;-75
2024/01/15 12:26:14;;;;;;;10.27;1.80;;;;;;;;;;5030523;28;20498;-76
2024/01/15 12:28:42;;;;;;;10.90;2.88;;;;;;;;;;5028121;28;20036;-76
2024/01/15 12:31:08;;;;;;;7.38;1.77;;;;;;;;;;5030098;28;20029;-76
2024/01/15 12:33:34;;;;;;;8.35;1.80;;;;;;;;;;5030362;28;20025;-75
2024/01/15 12:36:00;;;;;;;9.45;1.80;;;;;;;;;;5030301;28;20037;-76
2024/01/15 12:38:28;;;;;;;11.05;1.83;;;;;;;;;;5014116;28;20043;-76
2024/01/15 12:40:54;;;;;;;13.50;1.98;;;;;;;;;;5030443;28;20030;-75
2024/01/15 12:43:21;;;;;;;7.32;1.80;;;;;;;;;;5047048;28;20040;-75
2024/01/15 12:45:47;;;;;;;11.95;1.50;;;;;;;;;;5026022;28;20033;-75
2024/01/15 12:48:15;;;;;;;12.80;1.83;;;;;;;;;;5036162;28;20476;-75
2024/01/15 12:50:43;;;;;;;5.75;1.80;;;;;;;;;;5035399;28;20049;-75
2024/01/15 12:53:10;;;;;;;9.07;1.60;;;;;;;;;;5032037;28;20029;-75
2024/01/15 12:55:36;;;;;;;10.93;2.20;;;;;;;;;;5036569;28;20470;-75
2024/01/15 12:58:02;;;;;;;7.03;2.22;;;;;;;;;;5028685;28;20039;-76
2024/01/15 13:00:28;;;;;;;13.18;2.03;;;;;;;;;;5049813;28;20095;-75
2024/01/15 13:02:57;;;;;;;12.80;2.05;;;;;;;;;;5031490;28;20026;-76
2024/01/15 13:05:27;;;;;;;11.68;2.30;;;;;;;;;;5031614;28;20036;-77
2024/01/15 13:07:53;;;;;;;14.45;3.15;;;;;;;;;;5032546;28;20037;-76
2024/01/15 13:10:19;;;;;;;13.30;2.08;;;;;;;;;;5034209;28;20048;-75
2024/01/15 13:12:45;;;;;;;10.95;2.88;;;;;;;;;;5017977;28;20487;-76
2024/01/15 13:15:11;;;;;;;12.73;2.00;;;;;;;;;;5040194;28;20021;-76
2024/01/15 13:17:39;;;;;;;13.60;2.20;;;;;;;;;;5031825;28;20033;-75
2024/01/15 13:20:06;;;;;;;9.57;2.90;;;;;;;;;;5031361;28;20116;-74
2024/01/15 13:22:32;;;;;;;20.45;2.42;;;;;;;;;;5039103;28;20029;-75
2024/01/15 13:24:59;;;;;;;16.23;2.40;;;;;;;;;;5042735;28;20092;-74
2024/01/15 13:27:25;;;;;;;14.88;3.17;;;;;;;;;;5018728;28;20043;-75
2024/01/15 13:29:51;;;;;;;16.52;3.97;;;;;;;;;;5033440;28;20037;-74
2024/01/15 13:32:23;;;;;;;10.77;2.40;;;;;;;;;;5030305;28;20193;-75
2024/01/15 13:34:49;;;;;;;7.60;2.00;;;;;;;;;;5030106;28;20030;-75
2024/01/15 13:37:15;;;;;;;11.00;2.20;;;;;;;;;;5040217;28;20103;-75
2024/01/15 13:39:41;;;;;;;13.43;2.42;;;;;;;;;;5041418;28;20064;-76
2024/01/15 13:42:07;;;;;;;15.95;2.30;;;;;;;;;;5019746;28;20163;-75
2024/01/15 13:44:33;;;;;;;18.85;2.55;;;;;;;;;;5033412;28;20021;-75
2024/01/15 13:47:00;;;;;;;11.95;2.60;;;;;;;;;;5036915;28;20036;-74
2024/01/15 13:49:26;;;;;;;18.05;2.58;;;;;;;;;;5039277;28;20032;-75
2024/01/15 13:51:52;;;;;;;15.95;2.45;;;;;;;;;;5027228;28;20045;-73
2024/01/15 13:54:20;;;;;;;19.52;3.95;;;;;;;;;;5035760;28;20041;-73
2024/01/15 13:56:47;;;;;;;14.93;3.60;;;;;;;;;;5038124;28;20048;-75
2024/01/15 13:59:14;;;;;;;15.88;2.10;;;;;;;;;;5031150;28;20036;-74
2024/01/15 14:01:40;;;;;;;16.73;2.65;;;;;;;;;;5045835;28;20059;-74
2024/01/15 14:04:06;;;;;;;14.70;2.38;;;;;;;;;;5032110;28;20041;-73
2024/01/15 14:06:33;;;;;;;13.98;2.60;;;;;;;;;;5044594;28;20033;-74
2024/01/15 14:08:59;;;;;;;13.25;2.03;;;;;;;;;;5039490;28;20045;-74
2024/01/15 14:11:25;;;;;;;21.20;3.17;;;;;;;;;;5039347;28;20048;-74
2024/01/15 14:13:51;;;;;;;14.60;2.72;;;;;;;;;;5036935;28;20540;-74
2024/01/15 14:16:17;;;;;;;15.73;2.05;;;;;;;;;;5039929;28;20057;-74
2024/01/15 14:18:43;;;;;;;15.80;2.33;;;;;;;;;;5037810;28;20087;-75
2024/01/15 14:21:10;;;;;;;18.58;2.60;;;;;;;;;;5034775;28;20033;-74
2024/01/15 14:23:36;;;;;;;14.85;2.33;;;;;;;;;;5043665;28;20045;-74
2024/01/15 14:26:04;;;;;;;18.13;2.33;;;;;;;;;;5041645;28;20086;-74